Список аэропортов
Фактическая погода:

23 апреля, 12:30
Температура: +6°C (+1.5*)
Ветер: юго-западный 8 м/с
Давление: *749 мм
разорв. обл.
кучево-дождевые 1200 м
Время (МСК)Темп. СВетерВлажностьДавлениеОблачностьОсадки
09:00+4ЮЗ, 9 м/с62%998 гПас прояснениями
10:00+4ЮЗ, 9 м/с58%998 гПаоблачно
11:00+5ЮЗ, 9 м/с58%999 гПаоблачносл. дождь
12:00+6ЮЗ, 10 м/с59%999 гПаоблачнодождь
13:00+7ЮЗ, 9 м/с51%999 гПас прояснениямисл. дождь
14:00+7ЮЗ, 10 м/с50%1000 гПаоблачно
15:00+8З, 10 м/с48%1001 гПаоблачно
16:00+8З, 9 м/с46%1001 гПамалооблачно
17:00+8ЮЗ, 8 м/с46%1002 гПамалооблачно
18:00+7З, 7 м/с46%1003 гПамалооблачно
19:00+6З, 6 м/с46%1003 гПамалооблачно
20:00+6ЮЗ, 4 м/с49%1004 гПамалооблачно
21:00+4ЮЗ, 3 м/с55%1005 гПамалооблачно
22:00+3ЮЗ, 3 м/с61%1005 гПамалооблачно
23:00+2ЮЗ, 3 м/с67%1006 гПамалооблачно
24 апреля
00:00+1ЮЗ, 3 м/с72%1006 гПас прояснениями
01:000ЮЗ, 2 м/с76%1006 гПас прояснениями
02:00-0ЮЗ, 2 м/с80%1007 гПаоблачно
03:00-0З, 2 м/с83%1006 гПаоблачно
04:00-1З, 1 м/с85%1006 гПас прояснениями
05:00-1ЮЗ, 1 м/с89%1006 гПас прояснениями
06:00-1З, 1 м/с89%1006 гПаясно
07:00-1СЗ, 2 м/с88%1006 гПас прояснениями
08:00+2СЗ, 1 м/с78%1006 гПас прояснениями
09:00+5Штиль 69%1006 гПаоблачно
10:00+7СВ, 1 м/с55%1006 гПас прояснениями
11:00+8С, 1 м/с56%1006 гПаоблачносл. дождь
12:00+8СЗ, 2 м/с57%1005 гПаоблачнодождь
13:00+8СЗ, 3 м/с63%1005 гПаоблачнодождь
14:00+8СЗ, 3 м/с69%1005 гПаоблачнодождь
15:00+8СЗ, 4 м/с70%1005 гПаоблачнодождь
16:00+9СЗ, 5 м/с62%1005 гПаоблачно
17:00+8СЗ, 6 м/с62%1005 гПаоблачно
18:00+8СЗ, 6 м/с62%1006 гПаоблачно
19:00+7СЗ, 6 м/с66%1007 гПаоблачно
20:00+6СЗ, 4 м/с68%1007 гПаоблачно
21:00+5СЗ, 3 м/с69%1008 гПаоблачно
22:00+4З, 3 м/с73%1008 гПаоблачно
23:00+4З, 3 м/с70%1009 гПаоблачно
25 апреля
00:00+4СЗ, 5 м/с60%1009 гПаоблачно
01:00+2СЗ, 5 м/с71%1010 гПас прояснениями
02:00+1СЗ, 4 м/с80%1011 гПаясно
03:00+1СЗ, 3 м/с86%1011 гПаясно
04:000З, 3 м/с89%1011 гПаясно
05:00-0З, 3 м/с91%1012 гПаясно
06:00-0З, 3 м/с90%1013 гПаясно
07:000З, 4 м/с82%1013 гПаясно
08:00+3З, 3 м/с67%1013 гПаясно
09:00+6З, 4 м/с57%1014 гПаясно